sensor_id;sensor_type;location;lat;lon;timestamp;P1;durP1;ratioP1;P2;durP2;ratioP2
50988;SDS011;37008;52.210;21.112;2023-07-31T00:00:48;3.90;;;2.03;;
50988;SDS011;37008;52.210;21.112;2023-07-31T00:03:14;3.20;;;2.00;;
50988;SDS011;37008;52.210;21.112;2023-07-31T00:05:39;3.95;;;2.30;;
50988;SDS011;37008;52.210;21.112;2023-07-31T00:08:05;3.03;;;1.98;;
50988;SDS011;37008;52.210;21.112;2023-07-31T00:10:31;2.90;;;1.90;;
50988;SDS011;37008;52.210;21.112;2023-07-31T00:12:58;4.15;;;1.75;;
50988;SDS011;37008;52.210;21.112;2023-07-31T00:15:24;3.35;;;2.00;;
50988;SDS011;37008;52.210;21.112;2023-07-31T00:17:49;3.05;;;1.90;;
50988;SDS011;37008;52.210;21.112;2023-07-31T00:20:15;2.78;;;1.70;;
50988;SDS011;37008;52.210;21.112;2023-07-31T00:22:40;3.42;;;1.80;;
50988;SDS011;37008;52.210;21.112;2023-07-31T00:25:06;3.10;;;1.75;;
50988;SDS011;37008;52.210;21.112;2023-07-31T00:27:32;1.77;;;1.60;;
50988;SDS011;37008;52.210;21.112;2023-07-31T00:29:58;2.47;;;1.70;;
50988;SDS011;37008;52.210;21.112;2023-07-31T00:32:23;2.75;;;2.10;;
50988;SDS011;37008;52.210;21.112;2023-07-31T00:34:49;4.53;;;1.75;;
50988;SDS011;37008;52.210;21.112;2023-07-31T00:37:15;2.65;;;1.70;;
50988;SDS011;37008;52.210;21.112;2023-07-31T00:39:40;3.58;;;1.73;;
50988;SDS011;37008;52.210;21.112;2023-07-31T00:42:06;5.35;;;1.80;;
50988;SDS011;37008;52.210;21.112;2023-07-31T00:44:32;3.03;;;1.80;;
50988;SDS011;37008;52.210;21.112;2023-07-31T00:46:58;2.22;;;1.73;;
50988;SDS011;37008;52.210;21.112;2023-07-31T00:49:24;6.65;;;1.88;;
50988;SDS011;37008;52.210;21.112;2023-07-31T00:51:51;2.90;;;1.85;;
50988;SDS011;37008;52.210;21.112;2023-07-31T00:54:17;4.53;;;1.90;;
50988;SDS011;37008;52.210;21.112;2023-07-31T00:56:43;3.53;;;2.10;;
50988;SDS011;37008;52.210;21.112;2023-07-31T00:59:11;3.55;;;2.22;;
50988;SDS011;37008;52.210;21.112;2023-07-31T01:01:36;2.00;;;1.80;;
50988;SDS011;37008;52.210;21.112;2023-07-31T01:04:03;4.93;;;2.05;;
50988;SDS011;37008;52.210;21.112;2023-07-31T01:09:20;4.60;;;2.00;;
50988;SDS011;37008;52.210;21.112;2023-07-31T01:12:08;4.90;;;2.08;;
50988;SDS011;37008;52.210;21.112;2023-07-31T01:14:37;3.30;;;2.47;;
50988;SDS011;37008;52.210;21.112;2023-07-31T01:17:03;2.97;;;1.95;;
50988;SDS011;37008;52.210;21.112;2023-07-31T01:19:29;4.57;;;2.13;;
50988;SDS011;37008;52.210;21.112;2023-07-31T01:27:53;4.25;;;2.42;;
50988;SDS011;37008;52.210;21.112;2023-07-31T01:30:32;2.30;;;1.88;;
50988;SDS011;37008;52.210;21.112;2023-07-31T01:33:00;3.55;;;2.28;;
50988;SDS011;37008;52.210;21.112;2023-07-31T01:35:31;4.47;;;2.20;;
50988;SDS011;37008;52.210;21.112;2023-07-31T01:37:58;3.22;;;2.60;;
50988;SDS011;37008;52.210;21.112;2023-07-31T01:40:24;3.25;;;2.00;;
50988;SDS011;37008;52.210;21.112;2023-07-31T01:42:49;2.75;;;2.30;;
50988;SDS011;37008;52.210;21.112;2023-07-31T01:45:15;3.60;;;2.40;;
50988;SDS011;37008;52.210;21.112;2023-07-31T01:47:41;2.80;;;2.05;;
50988;SDS011;37008;52.210;21.112;2023-07-31T01:50:06;3.75;;;2.35;;
50988;SDS011;37008;52.210;21.112;2023-07-31T01:52:32;6.35;;;2.38;;
50988;SDS011;37008;52.210;21.112;2023-07-31T01:54:58;3.00;;;2.13;;
50988;SDS011;37008;52.210;21.112;2023-07-31T01:57:23;5.32;;;2.67;;
50988;SDS011;37008;52.210;21.112;2023-07-31T01:59:49;3.65;;;2.42;;
50988;SDS011;37008;52.210;21.112;2023-07-31T02:02:15;4.60;;;2.55;;
50988;SDS011;37008;52.210;21.112;2023-07-31T02:04:41;3.22;;;2.30;;
50988;SDS011;37008;52.210;21.112;2023-07-31T02:07:06;3.60;;;2.28;;
50988;SDS011;37008;52.210;21.112;2023-07-31T02:09:32;5.15;;;2.65;;
50988;SDS011;37008;52.210;21.112;2023-07-31T02:11:57;3.15;;;2.55;;
50988;SDS011;37008;52.210;21.112;2023-07-31T02:14:23;5.22;;;2.60;;
50988;SDS011;37008;52.210;21.112;2023-07-31T02:16:49;3.90;;;2.78;;
50988;SDS011;37008;52.210;21.112;2023-07-31T02:19:15;4.80;;;2.47;;
50988;SDS011;37008;52.210;21.112;2023-07-31T02:21:40;6.22;;;2.58;;
50988;SDS011;37008;52.210;21.112;2023-07-31T02:24:06;9.75;;;2.75;;
50988;SDS011;37008;52.210;21.112;2023-07-31T02:26:31;4.03;;;2.70;;
50988;SDS011;37008;52.210;21.112;2023-07-31T02:28:57;3.50;;;2.47;;
50988;SDS011;37008;52.210;21.112;2023-07-31T02:31:23;3.42;;;2.72;;
50988;SDS011;37008;52.210;21.112;2023-07-31T02:33:48;4.88;;;2.55;;
50988;SDS011;37008;52.210;21.112;2023-07-31T02:36:14;4.47;;;2.47;;
50988;SDS011;37008;52.210;21.112;2023-07-31T02:38:40;3.03;;;2.70;;
50988;SDS011;37008;52.210;21.112;2023-07-31T02:41:05;3.25;;;2.88;;
50988;SDS011;37008;52.210;21.112;2023-07-31T02:43:31;3.67;;;2.58;;
50988;SDS011;37008;52.210;21.112;2023-07-31T02:45:57;5.50;;;2.95;;
50988;SDS011;37008;52.210;21.112;2023-07-31T02:48:22;10.02;;;2.97;;
50988;SDS011;37008;52.210;21.112;2023-07-31T02:50:48;5.00;;;2.80;;
50988;SDS011;37008;52.210;21.112;2023-07-31T02:53:13;4.35;;;3.00;;
50988;SDS011;37008;52.210;21.112;2023-07-31T02:55:39;6.30;;;2.90;;
50988;SDS011;37008;52.210;21.112;2023-07-31T02:58:05;5.55;;;3.35;;
50988;SDS011;37008;52.210;21.112;2023-07-31T03:00:31;4.75;;;3.15;;
50988;SDS011;37008;52.210;21.112;2023-07-31T03:02:57;5.65;;;3.13;;
50988;SDS011;37008;52.210;21.112;2023-07-31T03:05:22;5.60;;;3.13;;
50988;SDS011;37008;52.210;21.112;2023-07-31T03:07:48;8.25;;;3.50;;
50988;SDS011;37008;52.210;21.112;2023-07-31T03:10:13;4.22;;;3.03;;
50988;SDS011;37008;52.210;21.112;2023-07-31T03:12:40;4.15;;;3.15;;
50988;SDS011;37008;52.210;21.112;2023-07-31T03:15:05;6.65;;;3.33;;
50988;SDS011;37008;52.210;21.112;2023-07-31T03:17:32;7.07;;;3.60;;
50988;SDS011;37008;52.210;21.112;2023-07-31T03:19:57;5.82;;;3.42;;
50988;SDS011;37008;52.210;21.112;2023-07-31T03:22:23;5.40;;;3.15;;
50988;SDS011;37008;52.210;21.112;2023-07-31T03:24:48;6.00;;;3.75;;
50988;SDS011;37008;52.210;21.112;2023-07-31T03:27:14;5.78;;;3.20;;
50988;SDS011;37008;52.210;21.112;2023-07-31T03:29:40;9.20;;;3.17;;
50988;SDS011;37008;52.210;21.112;2023-07-31T03:32:05;9.55;;;3.35;;
50988;SDS011;37008;52.210;21.112;2023-07-31T03:34:31;4.85;;;3.03;;
50988;SDS011;37008;52.210;21.112;2023-07-31T03:36:59;5.75;;;3.08;;
50988;SDS011;37008;52.210;21.112;2023-07-31T03:39:24;4.50;;;2.88;;
50988;SDS011;37008;52.210;21.112;2023-07-31T03:41:50;4.80;;;2.78;;
50988;SDS011;37008;52.210;21.112;2023-07-31T03:44:16;5.18;;;3.35;;
50988;SDS011;37008;52.210;21.112;2023-07-31T03:46:41;4.97;;;2.80;;
50988;SDS011;37008;52.210;21.112;2023-07-31T03:49:07;9.75;;;2.85;;
50988;SDS011;37008;52.210;21.112;2023-07-31T03:51:32;5.10;;;3.28;;
50988;SDS011;37008;52.210;21.112;2023-07-31T03:53:58;7.05;;;2.83;;
50988;SDS011;37008;52.210;21.112;2023-07-31T03:56:24;6.25;;;2.92;;
50988;SDS011;37008;52.210;21.112;2023-07-31T03:58:49;4.78;;;3.03;;
50988;SDS011;37008;52.210;21.112;2023-07-31T04:01:15;7.90;;;2.92;;
50988;SDS011;37008;52.210;21.112;2023-07-31T04:03:41;4.80;;;3.38;;
50988;SDS011;37008;52.210;21.112;2023-07-31T04:06:07;5.25;;;2.75;;
50988;SDS011;37008;52.210;21.112;2023-07-31T04:08:32;5.70;;;2.78;;
50988;SDS011;37008;52.210;21.112;2023-07-31T04:10:58;4.95;;;2.97;;
50988;SDS011;37008;52.210;21.112;2023-07-31T04:13:24;4.30;;;2.83;;
50988;SDS011;37008;52.210;21.112;2023-07-31T04:15:52;8.98;;;3.42;;
50988;SDS011;37008;52.210;21.112;2023-07-31T04:18:19;7.93;;;3.00;;
50988;SDS011;37008;52.210;21.112;2023-07-31T04:20:45;6.35;;;3.05;;
50988;SDS011;37008;52.210;21.112;2023-07-31T04:23:10;6.60;;;3.30;;
50988;SDS011;37008;52.210;21.112;2023-07-31T04:25:36;5.38;;;3.00;;
50988;SDS011;37008;52.210;21.112;2023-07-31T04:28:02;5.30;;;2.70;;
50988;SDS011;37008;52.210;21.112;2023-07-31T04:30:28;9.07;;;3.05;;
50988;SDS011;37008;52.210;21.112;2023-07-31T04:32:53;8.57;;;2.92;;
50988;SDS011;37008;52.210;21.112;2023-07-31T04:35:19;3.42;;;2.65;;
50988;SDS011;37008;52.210;21.112;2023-07-31T04:37:44;6.15;;;2.45;;
50988;SDS011;37008;52.210;21.112;2023-07-31T04:40:13;6.68;;;2.88;;
50988;SDS011;37008;52.210;21.112;2023-07-31T04:42:41;4.38;;;2.40;;
50988;SDS011;37008;52.210;21.112;2023-07-31T04:45:08;5.07;;;2.92;;
50988;SDS011;37008;52.210;21.112;2023-07-31T04:47:34;4.38;;;2.85;;
50988;SDS011;37008;52.210;21.112;2023-07-31T04:49:59;10.07;;;3.40;;
50988;SDS011;37008;52.210;21.112;2023-07-31T04:52:25;6.60;;;3.38;;
50988;SDS011;37008;52.210;21.112;2023-07-31T04:54:51;6.38;;;2.83;;
50988;SDS011;37008;52.210;21.112;2023-07-31T04:57:16;5.68;;;2.83;;
50988;SDS011;37008;52.210;21.112;2023-07-31T04:59:42;5.97;;;2.95;;
50988;SDS011;37008;52.210;21.112;2023-07-31T05:02:08;7.25;;;2.88;;
50988;SDS011;37008;52.210;21.112;2023-07-31T05:04:33;8.15;;;2.80;;
50988;SDS011;37008;52.210;21.112;2023-07-31T05:06:59;3.30;;;2.50;;
50988;SDS011;37008;52.210;21.112;2023-07-31T05:09:25;12.30;;;3.20;;
50988;SDS011;37008;52.210;21.112;2023-07-31T05:11:50;7.40;;;2.65;;
50988;SDS011;37008;52.210;21.112;2023-07-31T05:14:16;5.43;;;3.00;;
50988;SDS011;37008;52.210;21.112;2023-07-31T05:16:41;6.70;;;3.08;;
50988;SDS011;37008;52.210;21.112;2023-07-31T05:19:07;6.07;;;3.00;;
50988;SDS011;37008;52.210;21.112;2023-07-31T05:21:33;7.07;;;2.80;;
50988;SDS011;37008;52.210;21.112;2023-07-31T05:23:58;7.43;;;3.10;;
50988;SDS011;37008;52.210;21.112;2023-07-31T05:26:24;6.15;;;2.60;;
50988;SDS011;37008;52.210;21.112;2023-07-31T05:28:50;4.22;;;2.60;;
50988;SDS011;37008;52.210;21.112;2023-07-31T05:31:15;5.03;;;2.70;;
50988;SDS011;37008;52.210;21.112;2023-07-31T05:33:41;7.28;;;2.83;;
50988;SDS011;37008;52.210;21.112;2023-07-31T05:36:06;5.25;;;2.75;;
50988;SDS011;37008;52.210;21.112;2023-07-31T05:38:32;6.70;;;3.47;;
50988;SDS011;37008;52.210;21.112;2023-07-31T05:40:58;9.20;;;2.92;;
50988;SDS011;37008;52.210;21.112;2023-07-31T05:43:23;6.53;;;3.10;;
50988;SDS011;37008;52.210;21.112;2023-07-31T05:45:49;4.95;;;2.55;;
50988;SDS011;37008;52.210;21.112;2023-07-31T05:48:15;6.15;;;2.70;;
50988;SDS011;37008;52.210;21.112;2023-07-31T05:50:42;5.20;;;2.83;;
50988;SDS011;37008;52.210;21.112;2023-07-31T05:53:08;5.68;;;2.92;;
50988;SDS011;37008;52.210;21.112;2023-07-31T05:55:35;8.77;;;2.70;;
50988;SDS011;37008;52.210;21.112;2023-07-31T05:58:01;6.00;;;2.70;;
50988;SDS011;37008;52.210;21.112;2023-07-31T06:00:26;7.22;;;3.00;;
50988;SDS011;37008;52.210;21.112;2023-07-31T06:02:52;6.78;;;2.80;;
50988;SDS011;37008;52.210;21.112;2023-07-31T06:05:18;6.18;;;2.95;;
50988;SDS011;37008;52.210;21.112;2023-07-31T06:07:44;9.50;;;2.92;;
50988;SDS011;37008;52.210;21.112;2023-07-31T06:10:09;4.75;;;2.85;;
50988;SDS011;37008;52.210;21.112;2023-07-31T06:12:35;10.85;;;3.20;;
50988;SDS011;37008;52.210;21.112;2023-07-31T06:15:01;5.18;;;2.80;;
50988;SDS011;37008;52.210;21.112;2023-07-31T06:17:28;4.97;;;2.55;;
50988;SDS011;37008;52.210;21.112;2023-07-31T06:19:54;7.55;;;2.80;;
50988;SDS011;37008;52.210;21.112;2023-07-31T06:22:21;6.45;;;2.45;;
50988;SDS011;37008;52.210;21.112;2023-07-31T06:24:46;5.20;;;2.50;;
50988;SDS011;37008;52.210;21.112;2023-07-31T06:27:12;5.53;;;2.53;;
50988;SDS011;37008;52.210;21.112;2023-07-31T06:29:38;7.30;;;2.92;;
50988;SDS011;37008;52.210;21.112;2023-07-31T06:32:03;4.10;;;2.75;;
50988;SDS011;37008;52.210;21.112;2023-07-31T06:34:29;6.68;;;2.45;;
50988;SDS011;37008;52.210;21.112;2023-07-31T06:36:56;4.32;;;2.63;;
50988;SDS011;37008;52.210;21.112;2023-07-31T06:39:22;5.10;;;2.90;;
50988;SDS011;37008;52.210;21.112;2023-07-31T06:41:47;7.60;;;2.97;;
50988;SDS011;37008;52.210;21.112;2023-07-31T06:44:13;3.97;;;2.58;;
50988;SDS011;37008;52.210;21.112;2023-07-31T06:46:39;8.32;;;2.70;;
50988;SDS011;37008;52.210;21.112;2023-07-31T06:49:04;5.85;;;2.72;;
50988;SDS011;37008;52.210;21.112;2023-07-31T06:51:30;5.35;;;2.40;;
50988;SDS011;37008;52.210;21.112;2023-07-31T06:53:56;5.97;;;2.88;;
50988;SDS011;37008;52.210;21.112;2023-07-31T06:56:22;7.90;;;2.63;;
50988;SDS011;37008;52.210;21.112;2023-07-31T06:58:48;4.15;;;2.90;;
50988;SDS011;37008;52.210;21.112;2023-07-31T07:01:14;7.65;;;3.05;;
50988;SDS011;37008;52.210;21.112;2023-07-31T07:03:39;5.88;;;2.88;;
50988;SDS011;37008;52.210;21.112;2023-07-31T07:06:05;9.63;;;3.45;;
50988;SDS011;37008;52.210;21.112;2023-07-31T07:08:31;6.68;;;2.90;;
50988;SDS011;37008;52.210;21.112;2023-07-31T07:10:56;9.48;;;2.92;;
50988;SDS011;37008;52.210;21.112;2023-07-31T07:13:22;5.03;;;2.80;;
50988;SDS011;37008;52.210;21.112;2023-07-31T07:15:48;7.85;;;3.20;;
50988;SDS011;37008;52.210;21.112;2023-07-31T07:18:14;8.77;;;3.15;;
50988;SDS011;37008;52.210;21.112;2023-07-31T07:20:40;7.65;;;2.67;;
50988;SDS011;37008;52.210;21.112;2023-07-31T07:23:10;6.50;;;2.78;;
50988;SDS011;37008;52.210;21.112;2023-07-31T07:25:45;9.05;;;3.70;;
50988;SDS011;37008;52.210;21.112;2023-07-31T07:28:11;6.68;;;3.40;;
50988;SDS011;37008;52.210;21.112;2023-07-31T07:30:37;6.70;;;2.70;;
50988;SDS011;37008;52.210;21.112;2023-07-31T07:33:04;8.30;;;3.40;;
50988;SDS011;37008;52.210;21.112;2023-07-31T07:35:30;4.90;;;2.80;;
50988;SDS011;37008;52.210;21.112;2023-07-31T07:37:55;7.80;;;3.40;;
50988;SDS011;37008;52.210;21.112;2023-07-31T07:40:21;9.02;;;2.92;;
50988;SDS011;37008;52.210;21.112;2023-07-31T07:42:47;6.53;;;2.90;;
50988;SDS011;37008;52.210;21.112;2023-07-31T07:45:12;5.90;;;2.80;;
50988;SDS011;37008;52.210;21.112;2023-07-31T07:47:40;7.15;;;2.58;;
50988;SDS011;37008;52.210;21.112;2023-07-31T07:50:06;6.38;;;3.17;;
50988;SDS011;37008;52.210;21.112;2023-07-31T07:52:32;7.95;;;2.95;;
50988;SDS011;37008;52.210;21.112;2023-07-31T07:54:58;7.70;;;3.40;;
50988;SDS011;37008;52.210;21.112;2023-07-31T07:57:23;6.07;;;2.80;;
50988;SDS011;37008;52.210;21.112;2023-07-31T07:59:49;7.18;;;3.20;;
50988;SDS011;37008;52.210;21.112;2023-07-31T08:02:14;6.95;;;3.00;;
50988;SDS011;37008;52.210;21.112;2023-07-31T08:04:40;4.80;;;2.92;;
50988;SDS011;37008;52.210;21.112;2023-07-31T08:07:05;7.80;;;2.90;;
50988;SDS011;37008;52.210;21.112;2023-07-31T08:09:31;7.93;;;3.13;;
50988;SDS011;37008;52.210;21.112;2023-07-31T08:11:57;5.03;;;2.75;;
50988;SDS011;37008;52.210;21.112;2023-07-31T08:14:27;6.30;;;2.88;;
50988;SDS011;37008;52.210;21.112;2023-07-31T08:16:52;9.27;;;3.13;;
50988;SDS011;37008;52.210;21.112;2023-07-31T08:19:18;6.90;;;2.75;;
50988;SDS011;37008;52.210;21.112;2023-07-31T08:21:44;6.45;;;2.65;;
50988;SDS011;37008;52.210;21.112;2023-07-31T08:24:09;9.20;;;2.58;;
50988;SDS011;37008;52.210;21.112;2023-07-31T08:26:35;4.88;;;2.45;;
50988;SDS011;37008;52.210;21.112;2023-07-31T08:29:00;8.07;;;2.58;;
50988;SDS011;37008;52.210;21.112;2023-07-31T08:31:26;6.25;;;2.30;;
50988;SDS011;37008;52.210;21.112;2023-07-31T08:34:01;5.07;;;2.42;;
50988;SDS011;37008;52.210;21.112;2023-07-31T08:36:27;5.60;;;2.17;;
50988;SDS011;37008;52.210;21.112;2023-07-31T08:38:53;4.30;;;2.30;;
50988;SDS011;37008;52.210;21.112;2023-07-31T08:41:18;6.30;;;2.15;;
50988;SDS011;37008;52.210;21.112;2023-07-31T08:43:50;4.40;;;2.00;;
50988;SDS011;37008;52.210;21.112;2023-07-31T08:46:16;6.45;;;2.30;;
50988;SDS011;37008;52.210;21.112;2023-07-31T08:48:43;5.63;;;2.33;;
50988;SDS011;37008;52.210;21.112;2023-07-31T08:51:18;3.40;;;2.05;;
50988;SDS011;37008;52.210;21.112;2023-07-31T08:53:45;4.57;;;2.20;;
50988;SDS011;37008;52.210;21.112;2023-07-31T08:56:11;6.45;;;2.40;;
50988;SDS011;37008;52.210;21.112;2023-07-31T08:58:38;4.70;;;2.42;;
50988;SDS011;37008;52.210;21.112;2023-07-31T09:01:08;5.70;;;2.20;;
50988;SDS011;37008;52.210;21.112;2023-07-31T09:03:34;6.47;;;2.42;;
50988;SDS011;37008;52.210;21.112;2023-07-31T09:06:04;6.05;;;2.13;;
50988;SDS011;37008;52.210;21.112;2023-07-31T09:08:57;5.93;;;2.28;;
50988;SDS011;37008;52.210;21.112;2023-07-31T09:11:36;5.15;;;2.72;;
50988;SDS011;37008;52.210;21.112;2023-07-31T09:17:32;11.82;;;3.00;;
50988;SDS011;37008;52.210;21.112;2023-07-31T09:20:18;6.90;;;2.25;;
50988;SDS011;37008;52.210;21.112;2023-07-31T09:22:45;4.50;;;2.30;;
50988;SDS011;37008;52.210;21.112;2023-07-31T09:25:16;7.53;;;2.50;;
50988;SDS011;37008;52.210;21.112;2023-07-31T09:30:15;5.47;;;2.58;;
50988;SDS011;37008;52.210;21.112;2023-07-31T09:32:42;5.45;;;2.10;;
50988;SDS011;37008;52.210;21.112;2023-07-31T09:35:26;5.13;;;2.17;;
50988;SDS011;37008;52.210;21.112;2023-07-31T09:38:00;5.55;;;2.47;;
50988;SDS011;37008;52.210;21.112;2023-07-31T09:40:31;13.30;;;2.83;;
50988;SDS011;37008;52.210;21.112;2023-07-31T09:46:04;6.28;;;2.20;;
50988;SDS011;37008;52.210;21.112;2023-07-31T09:48:38;4.65;;;1.90;;
50988;SDS011;37008;52.210;21.112;2023-07-31T09:51:11;3.80;;;1.90;;
50988;SDS011;37008;52.210;21.112;2023-07-31T09:53:37;5.65;;;1.80;;
50988;SDS011;37008;52.210;21.112;2023-07-31T09:56:02;3.67;;;1.98;;
50988;SDS011;37008;52.210;21.112;2023-07-31T09:58:34;6.65;;;2.33;;
50988;SDS011;37008;52.210;21.112;2023-07-31T10:01:01;4.72;;;2.00;;
50988;SDS011;37008;52.210;21.112;2023-07-31T10:03:27;5.57;;;2.00;;
50988;SDS011;37008;52.210;21.112;2023-07-31T10:05:58;5.47;;;2.00;;
50988;SDS011;37008;52.210;21.112;2023-07-31T10:08:28;4.53;;;1.63;;
50988;SDS011;37008;52.210;21.112;2023-07-31T10:11:00;4.32;;;1.67;;
50988;SDS011;37008;52.210;21.112;2023-07-31T10:13:33;5.15;;;2.03;;
50988;SDS011;37008;52.210;21.112;2023-07-31T10:16:01;6.50;;;1.90;;
50988;SDS011;37008;52.210;21.112;2023-07-31T10:18:27;5.75;;;1.70;;
50988;SDS011;37008;52.210;21.112;2023-07-31T10:20:54;3.60;;;1.73;;
50988;SDS011;37008;52.210;21.112;2023-07-31T10:23:21;5.78;;;1.73;;
50988;SDS011;37008;52.210;21.112;2023-07-31T10:25:48;7.07;;;1.80;;
50988;SDS011;37008;52.210;21.112;2023-07-31T10:28:17;4.28;;;1.90;;
50988;SDS011;37008;52.210;21.112;2023-07-31T10:30:43;3.75;;;1.60;;
50988;SDS011;37008;52.210;21.112;2023-07-31T10:33:10;4.32;;;1.60;;
50988;SDS011;37008;52.210;21.112;2023-07-31T10:35:42;5.55;;;1.70;;
50988;SDS011;37008;52.210;21.112;2023-07-31T10:38:11;3.08;;;1.70;;
50988;SDS011;37008;52.210;21.112;2023-07-31T10:40:37;4.43;;;1.33;;
50988;SDS011;37008;52.210;21.112;2023-07-31T10:43:03;5.30;;;1.75;;
50988;SDS011;37008;52.210;21.112;2023-07-31T10:48:01;4.32;;;1.52;;
50988;SDS011;37008;52.210;21.112;2023-07-31T10:50:56;6.95;;;1.50;;
50988;SDS011;37008;52.210;21.112;2023-07-31T10:53:28;5.30;;;1.83;;
50988;SDS011;37008;52.210;21.112;2023-07-31T10:56:01;6.10;;;1.95;;
50988;SDS011;37008;52.210;21.112;2023-07-31T10:58:29;4.70;;;1.80;;
50988;SDS011;37008;52.210;21.112;2023-07-31T11:00:57;4.38;;;1.42;;
50988;SDS011;37008;52.210;21.112;2023-07-31T11:03:25;4.32;;;1.90;;
50988;SDS011;37008;52.210;21.112;2023-07-31T11:05:52;4.97;;;1.40;;
50988;SDS011;37008;52.210;21.112;2023-07-31T11:08:35;7.60;;;2.20;;
50988;SDS011;37008;52.210;21.112;2023-07-31T11:11:07;6.45;;;1.45;;
50988;SDS011;37008;52.210;21.112;2023-07-31T11:13:50;4.57;;;1.50;;
50988;SDS011;37008;52.210;21.112;2023-07-31T11:16:20;3.08;;;1.45;;
50988;SDS011;37008;52.210;21.112;2023-07-31T11:18:47;3.90;;;1.30;;
50988;SDS011;37008;52.210;21.112;2023-07-31T11:21:15;4.85;;;1.75;;
50988;SDS011;37008;52.210;21.112;2023-07-31T11:23:49;2.88;;;1.40;;
50988;SDS011;37008;52.210;21.112;2023-07-31T11:26:16;4.80;;;1.52;;
50988;SDS011;37008;52.210;21.112;2023-07-31T11:28:47;5.05;;;1.20;;
50988;SDS011;37008;52.210;21.112;2023-07-31T11:31:13;5.35;;;1.33;;
50988;SDS011;37008;52.210;21.112;2023-07-31T11:33:39;6.13;;;1.75;;
50988;SDS011;37008;52.210;21.112;2023-07-31T11:36:14;4.05;;;1.60;;
50988;SDS011;37008;52.210;21.112;2023-07-31T11:38:41;3.90;;;1.60;;
50988;SDS011;37008;52.210;21.112;2023-07-31T11:41:07;5.28;;;1.38;;
50988;SDS011;37008;52.210;21.112;2023-07-31T11:43:33;3.85;;;1.27;;
50988;SDS011;37008;52.210;21.112;2023-07-31T11:45:59;4.05;;;1.73;;
50988;SDS011;37008;52.210;21.112;2023-07-31T11:48:32;4.88;;;1.50;;
50988;SDS011;37008;52.210;21.112;2023-07-31T11:51:00;4.38;;;1.80;;
50988;SDS011;37008;52.210;21.112;2023-07-31T11:56:05;5.80;;;1.63;;
50988;SDS011;37008;52.210;21.112;2023-07-31T11:58:34;7.93;;;1.40;;
50988;SDS011;37008;52.210;21.112;2023-07-31T12:01:01;4.47;;;1.65;;
50988;SDS011;37008;52.210;21.112;2023-07-31T12:03:27;3.55;;;1.58;;
50988;SDS011;37008;52.210;21.112;2023-07-31T12:05:59;4.93;;;2.00;;
50988;SDS011;37008;52.210;21.112;2023-07-31T12:08:25;5.97;;;1.63;;
50988;SDS011;37008;52.210;21.112;2023-07-31T12:10:51;5.47;;;2.05;;
50988;SDS011;37008;52.210;21.112;2023-07-31T12:13:22;3.85;;;1.52;;
50988;SDS011;37008;52.210;21.112;2023-07-31T12:15:53;6.22;;;1.67;;
50988;SDS011;37008;52.210;21.112;2023-07-31T12:18:21;5.93;;;1.50;;
50988;SDS011;37008;52.210;21.112;2023-07-31T12:20:56;5.00;;;1.55;;
50988;SDS011;37008;52.210;21.112;2023-07-31T12:23:27;5.43;;;1.70;;
50988;SDS011;37008;52.210;21.112;2023-07-31T12:28:43;7.60;;;1.70;;
50988;SDS011;37008;52.210;21.112;2023-07-31T12:33:42;5.30;;;1.38;;
50988;SDS011;37008;52.210;21.112;2023-07-31T12:36:12;5.57;;;1.73;;
50988;SDS011;37008;52.210;21.112;2023-07-31T12:38:40;4.97;;;1.65;;
50988;SDS011;37008;52.210;21.112;2023-07-31T12:41:06;5.63;;;1.92;;
50988;SDS011;37008;52.210;21.112;2023-07-31T12:43:35;4.07;;;1.58;;
50988;SDS011;37008;52.210;21.112;2023-07-31T12:46:02;3.13;;;1.40;;
50988;SDS011;37008;52.210;21.112;2023-07-31T12:48:28;4.07;;;1.70;;
50988;SDS011;37008;52.210;21.112;2023-07-31T12:50:54;9.57;;;1.73;;
50988;SDS011;37008;52.210;21.112;2023-07-31T12:53:20;4.80;;;1.67;;
50988;SDS011;37008;52.210;21.112;2023-07-31T12:55:46;3.55;;;1.55;;
50988;SDS011;37008;52.210;21.112;2023-07-31T12:58:12;3.67;;;2.00;;
50988;SDS011;37008;52.210;21.112;2023-07-31T13:03:12;3.95;;;1.60;;
50988;SDS011;37008;52.210;21.112;2023-07-31T13:05:43;4.88;;;1.55;;
50988;SDS011;37008;52.210;21.112;2023-07-31T13:08:09;4.10;;;1.50;;
50988;SDS011;37008;52.210;21.112;2023-07-31T13:10:35;4.70;;;1.58;;
50988;SDS011;37008;52.210;21.112;2023-07-31T13:13:09;4.32;;;1.55;;
50988;SDS011;37008;52.210;21.112;2023-07-31T13:15:35;5.90;;;1.58;;
50988;SDS011;37008;52.210;21.112;2023-07-31T13:18:00;7.75;;;1.50;;
50988;SDS011;37008;52.210;21.112;2023-07-31T13:20:30;4.45;;;1.38;;
50988;SDS011;37008;52.210;21.112;2023-07-31T13:22:56;3.88;;;1.50;;
50988;SDS011;37008;52.210;21.112;2023-07-31T13:25:22;4.45;;;1.67;;
50988;SDS011;37008;52.210;21.112;2023-07-31T13:27:47;5.65;;;1.50;;
50988;SDS011;37008;52.210;21.112;2023-07-31T13:30:13;3.70;;;1.35;;
50988;SDS011;37008;52.210;21.112;2023-07-31T13:32:38;7.38;;;2.10;;
50988;SDS011;37008;52.210;21.112;2023-07-31T13:35:07;6.00;;;1.70;;
50988;SDS011;37008;52.210;21.112;2023-07-31T13:37:34;5.85;;;1.90;;
50988;SDS011;37008;52.210;21.112;2023-07-31T13:40:00;7.70;;;2.20;;
50988;SDS011;37008;52.210;21.112;2023-07-31T13:42:26;6.63;;;2.60;;
50988;SDS011;37008;52.210;21.112;2023-07-31T13:44:53;7.57;;;3.97;;
50988;SDS011;37008;52.210;21.112;2023-07-31T13:47:21;8.13;;;4.88;;
50988;SDS011;37008;52.210;21.112;2023-07-31T13:49:46;8.18;;;5.32;;
50988;SDS011;37008;52.210;21.112;2023-07-31T13:52:12;12.85;;;7.97;;
50988;SDS011;37008;52.210;21.112;2023-07-31T13:54:38;13.20;;;8.80;;
50988;SDS011;37008;52.210;21.112;2023-07-31T13:57:04;12.60;;;8.48;;
50988;SDS011;37008;52.210;21.112;2023-07-31T13:59:30;15.43;;;8.40;;
50988;SDS011;37008;52.210;21.112;2023-07-31T14:01:59;13.00;;;7.80;;
50988;SDS011;37008;52.210;21.112;2023-07-31T14:04:24;13.30;;;7.50;;
50988;SDS011;37008;52.210;21.112;2023-07-31T14:06:55;12.93;;;8.80;;
50988;SDS011;37008;52.210;21.112;2023-07-31T14:09:22;12.02;;;7.10;;
50988;SDS011;37008;52.210;21.112;2023-07-31T14:11:47;10.90;;;6.90;;
50988;SDS011;37008;52.210;21.112;2023-07-31T14:14:13;9.10;;;7.20;;
50988;SDS011;37008;52.210;21.112;2023-07-31T14:16:47;11.20;;;6.95;;
50988;SDS011;37008;52.210;21.112;2023-07-31T14:19:12;9.27;;;5.53;;
50988;SDS011;37008;52.210;21.112;2023-07-31T14:21:38;11.38;;;5.80;;
50988;SDS011;37008;52.210;21.112;2023-07-31T14:24:04;11.35;;;5.53;;
50988;SDS011;37008;52.210;21.112;2023-07-31T14:26:30;9.85;;;5.90;;
50988;SDS011;37008;52.210;21.112;2023-07-31T14:28:55;10.27;;;6.63;;
50988;SDS011;37008;52.210;21.112;2023-07-31T14:31:21;11.77;;;5.85;;
50988;SDS011;37008;52.210;21.112;2023-07-31T14:33:51;11.05;;;6.00;;
50988;SDS011;37008;52.210;21.112;2023-07-31T14:36:17;13.85;;;6.20;;
50988;SDS011;37008;52.210;21.112;2023-07-31T14:38:46;9.65;;;5.55;;
50988;SDS011;37008;52.210;21.112;2023-07-31T14:41:11;7.78;;;4.57;;
50988;SDS011;37008;52.210;21.112;2023-07-31T14:43:37;7.18;;;4.00;;
50988;SDS011;37008;52.210;21.112;2023-07-31T14:46:02;5.90;;;3.42;;
50988;SDS011;37008;52.210;21.112;2023-07-31T14:48:30;5.22;;;2.58;;
50988;SDS011;37008;52.210;21.112;2023-07-31T14:50:56;6.78;;;2.40;;
50988;SDS011;37008;52.210;21.112;2023-07-31T14:53:22;9.63;;;2.42;;
50988;SDS011;37008;52.210;21.112;2023-07-31T14:55:47;5.97;;;2.25;;
50988;SDS011;37008;52.210;21.112;2023-07-31T14:58:17;7.50;;;2.10;;
50988;SDS011;37008;52.210;21.112;2023-07-31T15:00:43;8.15;;;2.00;;
50988;SDS011;37008;52.210;21.112;2023-07-31T15:03:08;8.52;;;1.90;;